createdAt,value
2023-04-27T00:00:28.669Z,68.18
2023-04-27T00:03:16.555Z,68.17
2023-04-27T00:05:45.691Z,68.31
2023-04-27T00:08:14.195Z,67.75
2023-04-27T00:10:42.657Z,67.50
2023-04-27T00:13:11.153Z,67.74
2023-04-27T00:15:39.513Z,67.96
2023-04-27T00:18:09.248Z,68.00
2023-04-27T00:20:37.911Z,68.66
2023-04-27T00:23:06.596Z,68.87
2023-04-27T00:25:36.424Z,68.51
2023-04-27T00:28:05.202Z,68.44
2023-04-27T00:30:33.773Z,68.32
2023-04-27T00:33:02.413Z,68.53
2023-04-27T00:35:32.681Z,68.67
2023-04-27T00:38:01.365Z,68.32
2023-04-27T00:40:30.731Z,68.43
2023-04-27T00:43:00.271Z,68.43
2023-04-27T00:45:29.881Z,68.34
2023-04-27T00:47:59.214Z,69.02
2023-04-27T00:55:24.770Z,69.28
2023-04-27T00:57:53.451Z,69.54
2023-04-27T01:00:22.649Z,70.07
2023-04-27T01:02:51.555Z,69.90
2023-04-27T01:05:20.427Z,69.70
2023-04-27T01:07:49.326Z,69.85
2023-04-27T01:10:17.600Z,70.02
2023-04-27T01:12:46.477Z,69.77
2023-04-27T01:15:14.850Z,70.11
2023-04-27T01:17:44.106Z,69.69
2023-04-27T01:20:12.840Z,70.43
2023-04-27T01:22:42.046Z,70.12
2023-04-27T01:25:11.955Z,70.32
2023-04-27T01:27:40.644Z,70.55
2023-04-27T01:30:09.432Z,70.10
2023-04-27T01:32:39.477Z,69.76
2023-04-27T01:35:08.749Z,70.42
2023-04-27T01:37:37.213Z,70.59
2023-04-27T01:40:07.233Z,70.29
2023-04-27T01:42:35.632Z,69.92
2023-04-27T01:45:05.526Z,70.08
2023-04-27T01:47:33.963Z,69.90
2023-04-27T01:50:02.996Z,70.38
2023-04-27T01:52:31.683Z,70.43
2023-04-27T01:55:00.172Z,70.44
2023-04-27T01:57:29.357Z,70.32
2023-04-27T01:59:58.044Z,70.64
2023-04-27T02:02:26.859Z,70.13
2023-04-27T02:04:56.743Z,70.65
2023-04-27T02:21:18.983Z,68.48
2023-04-27T02:23:46.038Z,69.13
2023-04-27T02:26:17.955Z,69.24
2023-04-27T02:28:46.357Z,69.73
2023-04-27T02:31:15.323Z,69.73
2023-04-27T02:33:42.658Z,70.32
2023-04-27T02:36:09.747Z,70.47
2023-04-27T02:38:36.807Z,69.87
2023-04-27T02:41:04.462Z,70.42
2023-04-27T02:43:34.583Z,70.27
2023-04-27T02:46:04.288Z,70.47
2023-04-27T02:48:31.443Z,70.80
2023-04-27T02:50:58.777Z,70.83
2023-04-27T02:53:26.036Z,70.85
2023-04-27T02:55:53.037Z,70.99
2023-04-27T02:58:20.085Z,71.07
2023-04-27T03:00:48.788Z,71.04
2023-04-27T03:03:16.283Z,71.49
2023-04-27T03:27:00.797Z,68.83
2023-04-27T03:29:29.282Z,69.23
2023-04-27T03:31:58.034Z,69.72
2023-04-27T03:34:26.544Z,69.94
2023-04-27T03:36:55.242Z,70.33
2023-04-27T03:39:23.506Z,70.31
2023-04-27T03:41:51.882Z,70.36
2023-04-27T03:44:21.174Z,70.20
2023-04-27T03:46:49.561Z,70.23
2023-04-27T03:49:18.148Z,70.14
2023-04-27T03:51:47.641Z,70.19
2023-04-27T03:54:16.535Z,70.30
2023-04-27T03:56:44.824Z,70.20
2023-04-27T03:59:13.733Z,69.97
2023-04-27T04:01:49.178Z,69.72
2023-04-27T04:04:17.920Z,69.20
2023-04-27T04:20:15.573Z,64.89
2023-04-27T04:22:44.871Z,64.46
2023-04-27T04:25:13.460Z,61.94
2023-04-27T04:27:43.267Z,60.51
2023-04-27T04:30:13.007Z,59.10
2023-04-27T04:32:42.098Z,56.05
2023-04-27T04:35:11.497Z,54.74
2023-04-27T04:37:40.588Z,54.85
2023-04-27T04:40:11.713Z,54.70
2023-04-27T04:42:43.031Z,55.16
2023-04-27T04:45:12.069Z,56.01
2023-04-27T04:47:41.087Z,56.37
2023-04-27T04:50:10.436Z,56.12
2023-04-27T04:52:40.045Z,55.70
2023-04-27T04:55:09.783Z,55.74
2023-04-27T04:57:38.132Z,55.47
2023-04-27T05:00:12.709Z,56.15
2023-04-27T05:02:41.753Z,56.96
2023-04-27T05:05:11.258Z,57.22
2023-04-27T05:07:39.535Z,57.93
2023-04-27T05:10:08.731Z,57.81
2023-04-27T05:12:37.206Z,57.43
2023-04-27T05:15:06.901Z,57.01
2023-04-27T05:17:35.314Z,55.99
2023-04-27T05:20:05.315Z,56.16
2023-04-27T05:22:33.770Z,56.35
2023-04-27T05:25:02.372Z,55.59
2023-04-27T05:27:30.966Z,55.63
2023-04-27T05:29:59.224Z,56.25
2023-04-27T05:32:27.817Z,55.83
2023-04-27T05:34:56.495Z,55.67
2023-04-27T05:37:25.178Z,55.90
2023-04-27T05:39:53.669Z,55.65
2023-04-27T05:42:22.036Z,54.43
2023-04-27T05:44:50.530Z,53.69
2023-04-27T05:47:19.000Z,52.79
2023-04-27T05:49:51.882Z,50.76
2023-04-27T05:52:21.188Z,48.37
2023-04-27T05:54:50.387Z,48.02
2023-04-27T05:57:20.496Z,46.98
2023-04-27T05:59:48.884Z,46.39
2023-04-27T06:02:20.030Z,44.61
2023-04-27T06:04:49.457Z,43.69
2023-04-27T06:07:17.802Z,44.91
2023-04-27T06:09:46.383Z,43.28
2023-04-27T06:12:15.064Z,43.83
2023-04-27T06:14:43.821Z,44.99
2023-04-27T06:17:12.433Z,44.63
2023-04-27T06:19:40.818Z,46.00
2023-04-27T06:22:11.879Z,45.04
2023-04-27T06:24:40.332Z,46.26
2023-04-27T06:27:08.817Z,45.49
2023-04-27T06:29:37.617Z,43.88
2023-04-27T06:32:07.258Z,43.49
2023-04-27T06:34:36.294Z,42.80
2023-04-27T06:37:04.985Z,43.32
2023-04-27T06:39:33.357Z,42.23
2023-04-27T06:42:04.193Z,42.02
2023-04-27T06:44:33.291Z,41.72
2023-04-27T06:47:01.772Z,42.79
2023-04-27T06:49:30.555Z,45.42
2023-04-27T06:51:58.832Z,46.13
2023-04-27T06:54:27.210Z,45.19
2023-04-27T06:56:55.688Z,44.98
2023-04-27T06:59:24.065Z,46.48
2023-04-27T07:01:52.454Z,45.38
2023-04-27T07:04:21.555Z,44.49
2023-04-27T07:06:50.223Z,43.34
2023-04-27T07:09:26.901Z,42.90
2023-04-27T07:11:57.628Z,42.77
2023-04-27T07:14:26.336Z,42.18
2023-04-27T07:16:56.023Z,41.05
2023-04-27T07:19:24.296Z,42.09
2023-04-27T07:21:52.984Z,41.77
2023-04-27T07:24:21.470Z,42.29
2023-04-27T07:26:50.156Z,42.77
2023-04-27T07:29:26.377Z,41.37
2023-04-27T07:31:56.254Z,39.59
2023-04-27T07:34:24.802Z,38.67
2023-04-27T07:36:55.857Z,39.64
2023-04-27T07:39:24.426Z,40.15
2023-04-27T07:41:53.932Z,40.87
2023-04-27T07:44:22.195Z,41.10
2023-04-27T07:46:54.267Z,41.70
2023-04-27T07:49:22.853Z,42.64
2023-04-27T07:51:51.329Z,40.53
2023-04-27T07:54:20.226Z,39.18
2023-04-27T07:56:50.029Z,40.59
2023-04-27T07:59:21.789Z,41.29
2023-04-27T08:01:50.608Z,41.35
2023-04-27T08:04:21.749Z,41.25
2023-04-27T08:07:17.480Z,40.80
2023-04-27T08:09:46.783Z,40.28
2023-04-27T08:12:16.199Z,39.55
2023-04-27T08:14:48.817Z,39.62
2023-04-27T08:17:18.837Z,40.12
2023-04-27T08:19:47.417Z,40.23
2023-04-27T08:22:16.105Z,39.74
2023-04-27T08:24:44.784Z,40.29
2023-04-27T08:27:16.028Z,39.55
2023-04-27T08:29:48.806Z,38.69
2023-04-27T08:32:19.228Z,39.71
2023-04-27T08:34:48.944Z,42.24
2023-04-27T08:37:18.964Z,41.58
2023-04-27T08:39:48.258Z,41.96
2023-04-27T08:42:16.842Z,42.27
2023-04-27T08:44:45.934Z,43.90
2023-04-27T08:47:14.313Z,43.79
2023-04-27T08:49:43.307Z,44.09
2023-04-27T08:52:16.578Z,43.57
2023-04-27T08:54:45.285Z,40.67
2023-04-27T08:57:14.890Z,41.95
2023-04-27T08:59:46.336Z,42.68
2023-04-27T09:02:21.698Z,42.42
2023-04-27T09:04:52.453Z,41.19
2023-04-27T09:07:21.103Z,40.94
2023-04-27T09:09:50.092Z,40.07
2023-04-27T09:12:21.042Z,40.26
2023-04-27T09:15:06.767Z,40.04
2023-04-27T09:17:35.010Z,38.70
2023-04-27T09:20:14.114Z,37.62
2023-04-27T09:22:47.734Z,39.10
2023-04-27T09:25:32.004Z,40.26
2023-04-27T09:28:04.748Z,39.64
2023-04-27T09:30:33.337Z,39.27
2023-04-27T09:33:03.947Z,39.61
2023-04-27T09:35:33.781Z,38.51
2023-04-27T09:38:02.369Z,40.23
2023-04-27T09:40:32.241Z,39.51
2023-04-27T09:43:03.816Z,40.22
2023-04-27T09:45:34.509Z,39.96
2023-04-27T09:48:03.359Z,39.94
2023-04-27T09:50:44.597Z,39.90
2023-04-27T09:53:15.566Z,39.34
2023-04-27T09:55:48.964Z,40.76
2023-04-27T09:58:31.147Z,36.84
2023-04-27T10:01:14.508Z,38.03
2023-04-27T10:04:22.010Z,37.33
2023-04-27T10:06:59.777Z,36.78
2023-04-27T10:09:35.414Z,36.93
2023-04-27T10:12:20.281Z,36.88
2023-04-27T10:14:49.284Z,38.64
2023-04-27T10:17:18.142Z,37.28
2023-04-27T10:19:58.220Z,37.09
2023-04-27T10:22:46.252Z,38.58
2023-04-27T10:25:26.010Z,38.22
2023-04-27T10:28:02.467Z,37.51
2023-04-27T10:30:37.865Z,37.16
2023-04-27T10:33:09.817Z,38.29
2023-04-27T10:35:40.405Z,37.99
2023-04-27T10:38:12.261Z,37.93
2023-04-27T10:40:41.453Z,38.64
2023-04-27T10:43:15.061Z,37.63
2023-04-27T10:45:45.689Z,36.59
2023-04-27T10:48:16.940Z,37.97
2023-04-27T10:50:48.354Z,37.85
2023-04-27T10:53:16.966Z,38.43
2023-04-27T10:55:45.334Z,38.24
2023-04-27T10:58:13.823Z,38.29
2023-04-27T11:00:45.098Z,38.76
2023-04-27T11:03:24.446Z,38.74
2023-04-27T11:06:05.352Z,38.76
2023-04-27T11:08:37.029Z,37.49
2023-04-27T11:11:06.528Z,38.06
2023-04-27T11:13:35.214Z,38.88
2023-04-27T11:16:05.972Z,37.58
2023-04-27T11:18:38.730Z,37.53
2023-04-27T11:21:08.094Z,38.31
2023-04-27T11:24:06.717Z,38.09
2023-04-27T11:26:35.405Z,38.03
2023-04-27T11:29:10.947Z,37.42
2023-04-27T11:31:47.752Z,37.04
2023-04-27T11:34:19.519Z,37.53
2023-04-27T11:39:37.942Z,38.13
2023-04-27T11:42:19.734Z,37.10
2023-04-27T11:45:10.855Z,37.38
2023-04-27T11:47:41.193Z,38.28
2023-04-27T11:50:11.192Z,37.29
2023-04-27T11:52:41.077Z,37.24
2023-04-27T11:55:16.257Z,36.63
2023-04-27T11:57:44.932Z,36.82
2023-04-27T12:00:15.953Z,36.70
2023-04-27T12:02:44.644Z,36.64
2023-04-27T12:05:14.508Z,36.69
2023-04-27T12:07:44.269Z,36.78
2023-04-27T12:10:13.115Z,37.56
2023-04-27T12:12:42.208Z,37.21
2023-04-27T12:15:14.716Z,38.27
2023-04-27T12:17:44.558Z,37.45
2023-04-27T12:20:15.366Z,36.78
2023-04-27T12:22:44.339Z,37.67
2023-04-27T12:25:13.044Z,37.09
2023-04-27T12:27:42.031Z,38.34
2023-04-27T12:30:11.129Z,38.73
2023-04-27T12:32:40.476Z,37.64
2023-04-27T12:35:10.960Z,37.25
2023-04-27T12:37:39.539Z,37.81
2023-04-27T12:40:09.354Z,38.30
2023-04-27T12:42:38.112Z,38.45
2023-04-27T12:45:08.310Z,37.74
2023-04-27T12:50:10.187Z,37.58
2023-04-27T12:52:38.924Z,38.27
2023-04-27T12:55:17.930Z,39.29
2023-04-27T12:57:51.319Z,38.49
2023-04-27T13:00:21.108Z,37.55
2023-04-27T13:02:49.716Z,37.68
2023-04-27T13:05:22.988Z,37.77
2023-04-27T13:07:51.275Z,38.09
2023-04-27T13:10:22.300Z,37.76
2023-04-27T13:12:50.809Z,37.49
2023-04-27T13:15:19.383Z,37.54
2023-04-27T13:17:49.131Z,37.85
2023-04-27T13:20:17.982Z,37.57
2023-04-27T13:22:46.252Z,38.07
2023-04-27T13:25:18.539Z,38.13
2023-04-27T13:27:46.895Z,37.30
2023-04-27T13:30:20.399Z,36.97
2023-04-27T13:32:49.422Z,36.79
2023-04-27T13:35:18.896Z,37.51
2023-04-27T13:37:48.494Z,37.70
2023-04-27T13:40:18.513Z,37.91
2023-04-27T13:42:47.400Z,38.59
2023-04-27T13:45:15.985Z,39.26
2023-04-27T13:47:44.809Z,39.95
2023-04-27T13:50:19.264Z,39.12
2023-04-27T13:52:48.796Z,40.08
2023-04-27T13:55:17.364Z,40.06
2023-04-27T13:57:45.663Z,39.66
2023-04-27T14:00:14.853Z,39.25
2023-04-27T14:02:43.863Z,38.30
2023-04-27T14:05:13.036Z,38.78
2023-04-27T14:07:41.524Z,38.79
2023-04-27T14:10:11.766Z,39.29
2023-04-27T14:12:40.329Z,40.01
2023-04-27T14:15:10.238Z,39.58
2023-04-27T14:17:38.675Z,40.13
2023-04-27T14:20:09.767Z,40.38
2023-04-27T14:22:38.601Z,39.46
2023-04-27T14:25:08.261Z,38.61
2023-04-27T14:27:37.370Z,38.40
2023-04-27T14:30:07.180Z,38.56
2023-04-27T14:32:36.796Z,38.13
2023-04-27T14:35:07.391Z,38.36
2023-04-27T14:37:38.231Z,39.06
2023-04-27T14:40:07.987Z,38.73
2023-04-27T14:42:36.632Z,38.58
2023-04-27T14:45:07.462Z,39.21
2023-04-27T14:47:36.153Z,39.63
2023-04-27T14:50:05.448Z,39.20
2023-04-27T14:52:34.547Z,39.02
2023-04-27T14:55:03.147Z,39.12
2023-04-27T14:57:32.432Z,39.91
2023-04-27T15:00:01.412Z,39.54
2023-04-27T15:02:31.203Z,40.41
2023-04-27T15:05:02.155Z,39.66
2023-04-27T15:07:56.348Z,39.24
2023-04-27T15:10:26.153Z,39.37
2023-04-27T15:12:54.939Z,39.29
2023-04-27T15:15:23.531Z,39.40
2023-04-27T15:17:52.254Z,39.18
2023-04-27T15:20:21.205Z,39.24
2023-04-27T15:22:49.587Z,39.55
2023-04-27T15:25:18.269Z,40.41
2023-04-27T15:27:46.959Z,40.86
2023-04-27T15:30:17.066Z,41.26
2023-04-27T15:32:45.778Z,40.62
2023-04-27T15:35:14.240Z,40.32
2023-04-27T15:37:42.613Z,40.08
2023-04-27T15:40:11.803Z,40.92
2023-04-27T15:42:40.486Z,41.30
2023-04-27T15:45:11.153Z,41.89
2023-04-27T15:47:39.658Z,42.48
2023-04-27T15:50:08.625Z,42.72
2023-04-27T15:52:37.073Z,42.53
2023-04-27T15:55:06.681Z,42.76
2023-04-27T15:57:36.281Z,43.38
2023-04-27T16:00:12.242Z,43.36
2023-04-27T16:02:40.817Z,43.35
2023-04-27T16:05:10.019Z,43.69
2023-04-27T16:07:40.068Z,43.07
2023-04-27T16:10:10.003Z,43.20
2023-04-27T16:12:38.852Z,43.52
2023-04-27T16:15:10.955Z,43.55
2023-04-27T16:17:40.034Z,43.93
2023-04-27T16:20:09.811Z,44.22
2023-04-27T16:22:38.498Z,44.36
2023-04-27T16:25:11.158Z,44.41
2023-04-27T16:27:39.649Z,45.16
2023-04-27T16:30:09.107Z,45.48
2023-04-27T16:32:38.186Z,45.03
2023-04-27T16:35:08.375Z,45.81
2023-04-27T16:37:36.751Z,46.14
2023-04-27T16:40:08.198Z,46.34
2023-04-27T16:42:36.789Z,47.17
2023-04-27T16:45:09.152Z,48.17
2023-04-27T16:47:39.483Z,48.83
2023-04-27T16:50:09.286Z,49.22
2023-04-27T16:52:37.559Z,49.52
2023-04-27T16:55:07.672Z,49.80
2023-04-27T16:57:36.160Z,50.24
2023-04-27T17:00:06.663Z,50.25
2023-04-27T17:02:35.501Z,51.03
2023-04-27T17:05:04.829Z,51.35
2023-04-27T17:07:33.556Z,51.56
2023-04-27T17:10:02.340Z,52.42
2023-04-27T17:12:30.818Z,52.80
2023-04-27T17:14:59.451Z,52.70
2023-04-27T17:17:27.799Z,52.90
2023-04-27T17:19:56.463Z,53.09
2023-04-27T17:22:25.048Z,53.64
2023-04-27T17:24:53.731Z,53.83
2023-04-27T17:27:22.003Z,54.45
2023-04-27T17:29:52.020Z,54.95
2023-04-27T17:32:20.295Z,54.57
2023-04-27T17:34:49.089Z,54.78
2023-04-27T17:37:17.361Z,54.77
2023-04-27T17:39:46.452Z,54.97
2023-04-27T17:42:15.448Z,55.20
2023-04-27T17:44:44.040Z,55.64
2023-04-27T17:47:13.946Z,55.79
2023-04-27T17:49:42.333Z,56.02
2023-04-27T17:52:10.702Z,56.24
2023-04-27T17:54:41.435Z,56.37
2023-04-27T17:57:09.915Z,56.92
2023-04-27T17:59:38.595Z,57.62
2023-04-27T18:02:07.939Z,58.96
2023-04-27T18:04:37.126Z,59.50
2023-04-27T18:07:06.611Z,59.22
2023-04-27T18:09:35.080Z,59.25
2023-04-27T18:12:04.891Z,59.32
2023-04-27T18:14:33.164Z,59.32
2023-04-27T18:17:01.747Z,59.54
2023-04-27T18:19:30.331Z,59.94
2023-04-27T18:21:58.818Z,59.72
2023-04-27T18:24:27.189Z,60.12
2023-04-27T18:26:55.601Z,60.20
2023-04-27T18:29:24.347Z,60.73
2023-04-27T18:31:53.627Z,60.82
2023-04-27T18:34:22.342Z,60.85
2023-04-27T18:36:52.188Z,60.47
2023-04-27T18:39:20.943Z,59.99
2023-04-27T18:41:49.525Z,59.86
2023-04-27T18:44:17.885Z,59.97
2023-04-27T18:46:49.339Z,60.21
2023-04-27T18:49:17.902Z,60.44
2023-04-27T18:51:46.510Z,60.94
2023-04-27T18:54:15.083Z,60.08
2023-04-27T18:56:43.358Z,59.70
2023-04-27T18:59:11.964Z,59.56
2023-04-27T19:01:40.903Z,59.75
2023-04-27T19:04:09.443Z,60.54
2023-04-27T19:06:37.998Z,60.69
2023-04-27T19:09:06.579Z,60.96
2023-04-27T19:11:36.397Z,61.70
2023-04-27T19:14:04.672Z,61.65
2023-04-27T19:16:33.191Z,62.12
2023-04-27T19:19:01.541Z,61.45
2023-04-27T19:21:30.224Z,60.97
2023-04-27T19:23:58.903Z,61.42
2023-04-27T19:26:29.633Z,62.33
2023-04-27T19:28:58.311Z,62.45
2023-04-27T19:31:28.207Z,62.16
2023-04-27T19:36:32.342Z,62.89
2023-04-27T19:39:01.342Z,62.77
2023-04-27T19:41:29.620Z,62.89
2023-04-27T19:43:58.200Z,63.21
2023-04-27T19:46:26.947Z,63.08
2023-04-27T19:48:56.185Z,63.16
2023-04-27T19:51:24.972Z,63.42
2023-04-27T19:53:53.347Z,63.47
2023-04-27T19:56:21.828Z,63.61
2023-04-27T19:58:50.621Z,63.71
2023-04-27T20:01:20.363Z,64.06
2023-04-27T20:03:49.187Z,64.43
2023-04-27T20:06:20.458Z,64.51
2023-04-27T20:08:49.345Z,64.35
2023-04-27T20:11:17.724Z,64.37
2023-04-27T20:13:46.421Z,64.56
2023-04-27T20:16:14.878Z,64.73
2023-04-27T20:18:45.417Z,64.89
2023-04-27T20:21:14.315Z,64.71
2023-04-27T20:23:43.193Z,64.89
2023-04-27T20:26:11.981Z,65.12
2023-04-27T20:28:40.152Z,64.93
2023-04-27T20:31:08.740Z,64.78
2023-04-27T20:33:37.119Z,64.60
2023-04-27T20:36:14.087Z,64.38
2023-04-27T20:38:46.579Z,64.39
2023-04-27T20:41:15.149Z,64.30
2023-04-27T20:43:45.788Z,64.42
2023-04-27T20:46:14.175Z,64.35
2023-04-27T20:48:42.641Z,64.44
2023-04-27T20:51:11.530Z,65.16
2023-04-27T20:53:40.730Z,65.05
2023-04-27T20:56:09.516Z,65.13
2023-04-27T20:58:37.989Z,64.84
2023-04-27T21:01:06.642Z,64.70
2023-04-27T21:03:36.144Z,65.08
2023-04-27T21:06:05.279Z,65.36
2023-04-27T21:08:34.282Z,65.55
2023-04-27T21:11:03.070Z,66.10
2023-04-27T21:13:31.842Z,66.15
2023-04-27T21:16:00.324Z,66.00
2023-04-27T21:18:30.396Z,65.71
2023-04-27T21:20:59.607Z,65.70
2023-04-27T21:23:28.166Z,65.50
2023-04-27T21:25:56.612Z,65.61
2023-04-27T21:28:25.078Z,65.45
2023-04-27T21:30:53.509Z,65.81
2023-04-27T21:33:22.669Z,65.86
2023-04-27T21:35:51.030Z,66.15
2023-04-27T21:38:19.407Z,66.00
2023-04-27T21:40:48.473Z,65.65
2023-04-27T21:43:17.085Z,65.78
2023-04-27T21:45:45.358Z,65.45
2023-04-27T21:48:13.866Z,65.35
2023-04-27T21:50:42.733Z,65.32
2023-04-27T21:53:11.827Z,65.45
2023-04-27T22:07:37.614Z,64.25
2023-04-27T22:10:06.787Z,63.96
2023-04-27T22:12:35.273Z,64.16
2023-04-27T22:15:04.359Z,64.24
2023-04-27T22:17:32.634Z,65.06
2023-04-27T22:20:01.624Z,64.97
2023-04-27T22:27:06.090Z,64.90
2023-04-27T22:29:34.675Z,64.99
2023-04-27T22:32:28.149Z,65.04
2023-04-27T22:34:57.652Z,64.83
2023-04-27T22:37:27.184Z,65.37
2023-04-27T22:39:57.566Z,65.02
2023-04-27T22:42:26.159Z,65.27
2023-04-27T22:44:54.726Z,65.29
2023-04-27T22:47:23.382Z,65.10
2023-04-27T22:49:55.152Z,64.88
2023-04-27T22:52:25.090Z,64.67
2023-04-27T22:54:53.573Z,64.44
2023-04-27T22:57:22.146Z,64.35
2023-04-27T22:59:51.753Z,64.17
2023-04-27T23:02:20.577Z,64.44
2023-04-27T23:04:49.231Z,64.30
2023-04-27T23:41:01.355Z,61.20
2023-04-27T23:43:29.622Z,61.92
